Time;durP1;ratioP1;P1;durP2;ratioP2;P2;SDS_P1;SDS_P2;PMS_P1;PMS_P2;Temp;Humidity;BMP_temperature;BMP_pressure;BME280_temperature;BME280_humidity;BME280_pressure;Samples;Min_cycle;Max_cycle;Signal;HPM_P1;HPM_P2
2021/05/12 00:00:20;;;;;;;18.13;8.98;;;10.60;96.70;;;;;;5049132;28;20055;-72
2021/05/12 00:02:45;;;;;;;16.58;9.07;;;10.60;96.60;;;;;;5058242;28;20560;-71
2021/05/12 00:05:12;;;;;;;19.83;8.88;;;10.50;96.70;;;;;;5054137;28;20104;-71
2021/05/12 00:07:37;;;;;;;14.18;8.80;;;10.50;96.60;;;;;;5058868;28;20099;-71
2021/05/12 00:10:05;;;;;;;14.63;8.82;;;10.50;96.50;;;;;;5054527;28;20388;-71
2021/05/12 00:12:31;;;;;;;17.02;9.15;;;10.50;96.50;;;;;;5054642;28;20408;-71
2021/05/12 00:14:57;;;;;;;15.23;8.82;;;10.50;96.50;;;;;;5050203;28;20036;-70
2021/05/12 00:17:22;;;;;;;14.23;8.57;;;10.50;96.50;;;;;;5056669;28;20098;-71
2021/05/12 00:19:55;;;;;;;23.42;10.55;;;10.50;96.70;;;;;;5056492;28;20491;-71
2021/05/12 00:22:46;;;;;;;15.43;8.82;;;10.50;96.70;;;;;;5049539;28;20105;-71
2021/05/12 00:25:13;;;;;;;15.25;8.75;;;10.50;96.70;;;;;;5054552;28;20029;-71
2021/05/12 00:27:39;;;;;;;15.13;8.93;;;10.50;96.80;;;;;;5052541;28;20066;-71
2021/05/12 00:30:12;;;;;;;14.68;8.85;;;10.40;96.70;;;;;;5059092;28;20029;-71
2021/05/12 00:32:38;;;;;;;18.10;9.63;;;10.50;96.80;;;;;;5046030;28;20093;-70
2021/05/12 00:35:05;;;;;;;16.40;9.70;;;10.50;96.80;;;;;;5053205;28;20124;-70
2021/05/12 00:37:31;;;;;;;16.60;9.10;;;10.50;96.80;;;;;;5055459;28;20570;-70
2021/05/12 00:39:56;;;;;;;20.33;8.98;;;10.50;96.70;;;;;;5053570;28;20119;-71
2021/05/12 00:42:27;;;;;;;15.70;8.80;;;10.50;96.80;;;;;;5055612;28;20485;-70
2021/05/12 00:44:53;;;;;;;16.90;9.20;;;10.40;96.70;;;;;;5048660;28;20021;-71
2021/05/12 00:47:25;;;;;;;18.60;10.50;;;10.40;96.70;;;;;;5047312;28;20029;-71
2021/05/12 00:49:51;;;;;;;15.88;9.55;;;10.50;96.80;;;;;;5047936;28;20581;-71
2021/05/12 00:52:16;;;;;;;20.40;9.27;;;10.50;96.70;;;;;;5050349;28;20221;-71
2021/05/12 00:54:42;;;;;;;17.90;9.45;;;10.40;96.70;;;;;;5054439;28;20021;-71
2021/05/12 00:57:08;;;;;;;17.15;8.93;;;10.40;96.70;;;;;;5047838;28;20316;-71
2021/05/12 00:59:34;;;;;;;17.08;9.52;;;10.40;96.70;;;;;;5049103;28;20643;-71
2021/05/12 01:02:01;;;;;;;16.33;8.85;;;10.50;96.80;;;;;;5050151;28;20031;-70
2021/05/12 01:04:27;;;;;;;25.08;10.00;;;10.40;96.70;;;;;;5058155;28;20020;-70
2021/05/12 01:06:53;;;;;;;19.17;9.70;;;10.40;96.70;;;;;;5047731;28;20106;-70
2021/05/12 01:09:19;;;;;;;18.27;8.82;;;10.40;96.70;;;;;;5054149;28;20058;-70
2021/05/12 01:11:44;;;;;;;18.27;8.85;;;10.40;96.60;;;;;;5055804;28;20108;-70
2021/05/12 01:14:10;;;;;;;16.83;8.82;;;10.40;96.70;;;;;;5048333;28;20059;-70
2021/05/12 01:16:36;;;;;;;15.07;8.88;;;10.30;96.50;;;;;;5058041;28;20032;-70
2021/05/12 01:19:01;;;;;;;16.92;9.10;;;10.40;96.70;;;;;;5044549;28;20085;-70
2021/05/12 01:21:27;;;;;;;14.18;8.20;;;10.30;96.50;;;;;;5048337;28;20520;-70
2021/05/12 01:23:53;;;;;;;16.35;9.02;;;10.40;96.50;;;;;;5054671;28;20029;-70
2021/05/12 01:26:21;;;;;;;17.70;9.10;;;10.40;96.60;;;;;;5061066;28;20360;-70
2021/05/12 01:28:49;;;;;;;13.93;8.13;;;10.40;96.70;;;;;;5054769;28;20037;-70
2021/05/12 01:31:19;;;;;;;17.27;8.75;;;10.40;96.50;;;;;;5065623;28;20056;-70
2021/05/12 01:33:45;;;;;;;15.48;9.13;;;10.40;96.60;;;;;;5056233;28;20025;-71
2021/05/12 01:36:12;;;;;;;18.83;9.02;;;10.40;96.70;;;;;;5060181;28;20033;-71
2021/05/12 01:38:42;;;;;;;13.85;8.23;;;10.40;96.80;;;;;;5050148;28;20082;-71
2021/05/12 01:41:07;;;;;;;16.95;8.30;;;10.30;96.80;;;;;;5056371;28;20033;-70
2021/05/12 01:43:34;;;;;;;17.10;8.48;;;10.30;96.70;;;;;;5049213;28;20048;-70
2021/05/12 01:46:00;;;;;;;17.05;8.18;;;10.30;96.80;;;;;;5064368;28;20296;-71
2021/05/12 01:48:27;;;;;;;20.63;9.20;;;10.30;96.70;;;;;;5054991;28;20472;-70
2021/05/12 01:50:53;;;;;;;15.90;7.90;;;10.30;96.80;;;;;;5049105;28;20033;-70
2021/05/12 01:53:19;;;;;;;14.52;8.50;;;10.30;96.80;;;;;;5053968;28;20422;-70
2021/05/12 01:55:47;;;;;;;17.55;8.48;;;10.30;96.90;;;;;;5053358;28;20029;-70
2021/05/12 01:58:13;;;;;;;18.48;8.38;;;10.30;96.80;;;;;;5048986;28;20033;-70
2021/05/12 02:00:45;;;;;;;11.68;7.75;;;10.30;96.80;;;;;;5054999;28;20029;-70
2021/05/12 02:03:11;;;;;;;12.38;8.05;;;10.20;96.70;;;;;;5048499;28;20024;-70
2021/05/12 02:05:38;;;;;;;15.13;8.68;;;10.30;96.80;;;;;;5062597;28;20020;-70
2021/05/12 02:08:10;;;;;;;13.70;8.18;;;10.30;96.80;;;;;;5063321;28;20033;-70
2021/05/12 02:10:36;;;;;;;;;;;10.30;96.80;;;;;;5056823;28;20024;-71
2021/05/12 02:13:03;;;;;;;13.68;7.55;;;10.30;96.80;;;;;;5057557;28;19996;-71
2021/05/12 02:15:28;;;;;;;14.15;7.97;;;10.30;96.70;;;;;;5056284;28;20028;-71
2021/05/12 02:17:54;;;;;;;12.65;7.45;;;10.30;96.70;;;;;;5050658;28;20183;-70
2021/05/12 02:20:39;;;;;;;19.42;8.35;;;10.30;96.60;;;;;;5048903;28;20639;-70
2021/05/12 02:23:08;;;;;;;12.70;7.93;;;10.30;96.70;;;;;;5053106;28;20556;-70
2021/05/12 02:25:33;;;;;;;20.85;8.68;;;10.20;96.70;;;;;;5051099;28;20434;-70
2021/05/12 02:28:00;;;;;;;12.65;8.18;;;10.20;96.60;;;;;;5059929;28;20099;-71
2021/05/12 02:30:26;;;;;;;15.07;8.77;;;10.20;96.70;;;;;;5055977;28;20033;-71
2021/05/12 02:32:51;;;;;;;14.52;8.50;;;10.20;96.70;;;;;;5055770;28;20036;-70
2021/05/12 02:35:18;;;;;;;15.05;8.50;;;10.20;96.70;;;;;;5052888;28;20460;-70
2021/05/12 02:37:45;;;;;;;16.75;9.25;;;10.30;96.80;;;;;;5067162;28;20088;-71
2021/05/12 02:40:13;;;;;;;11.20;7.70;;;10.20;96.80;;;;;;5061294;28;20039;-71
2021/05/12 02:42:40;;;;;;;15.55;8.40;;;10.20;96.90;;;;;;5055799;28;20025;-70
2021/05/12 02:45:06;;;;;;;22.10;9.05;;;10.20;96.90;;;;;;5053998;28;20024;-71
2021/05/12 02:47:32;;;;;;;22.50;10.45;;;10.20;97.00;;;;;;5064443;28;20329;-70
2021/05/12 02:49:59;;;;;;;16.50;9.07;;;10.30;97.00;;;;;;5059048;28;20389;-71
2021/05/12 02:52:24;;;;;;;20.05;9.57;;;10.20;96.90;;;;;;5058784;28;20036;-71
2021/05/12 02:54:50;;;;;;;18.65;8.68;;;10.30;97.10;;;;;;5054870;28;20493;-71
2021/05/12 02:57:16;;;;;;;18.25;9.10;;;10.30;97.00;;;;;;5066893;28;20413;-71
2021/05/12 02:59:41;;;;;;;18.02;8.85;;;10.20;96.90;;;;;;5061632;28;20386;-71
2021/05/12 03:02:07;;;;;;;14.07;8.70;;;10.30;97.00;;;;;;5049499;28;20489;-71
2021/05/12 03:04:33;;;;;;;18.10;8.77;;;10.20;96.90;;;;;;5060033;28;20380;-71
2021/05/12 03:06:58;;;;;;;18.25;9.77;;;10.20;96.80;;;;;;5062507;28;20112;-71
2021/05/12 03:09:25;;;;;;;18.63;8.95;;;10.20;96.80;;;;;;5057721;28;20503;-71
2021/05/12 03:11:51;;;;;;;16.25;9.55;;;10.20;96.80;;;;;;5057927;28;20095;-71
2021/05/12 03:14:17;;;;;;;22.23;10.07;;;10.10;96.70;;;;;;5058898;28;20492;-71
2021/05/12 03:16:43;;;;;;;23.83;11.80;;;10.10;96.70;;;;;;5052400;28;20130;-70
2021/05/12 03:19:09;;;;;;;16.83;10.05;;;10.20;96.80;;;;;;5048356;28;20035;-71
2021/05/12 03:21:36;;;;;;;17.23;10.38;;;10.20;96.80;;;;;;5046326;28;20036;-71
2021/05/12 03:24:02;;;;;;;16.30;9.10;;;10.20;96.80;;;;;;5045642;28;20075;-71
2021/05/12 03:26:28;;;;;;;19.80;9.80;;;10.20;96.80;;;;;;5052850;28;20055;-71
2021/05/12 03:28:54;;;;;;;16.52;9.48;;;10.20;96.80;;;;;;5060080;28;20112;-71
2021/05/12 03:31:20;;;;;;;17.58;9.55;;;10.10;96.80;;;;;;5047596;28;20024;-71
2021/05/12 03:33:46;;;;;;;17.75;9.40;;;10.20;96.80;;;;;;5048658;28;20065;-71
2021/05/12 03:36:12;;;;;;;16.80;9.32;;;10.20;96.80;;;;;;5049558;28;20501;-71
2021/05/12 03:38:38;;;;;;;20.10;9.70;;;10.20;96.90;;;;;;5049174;28;20053;-71
2021/05/12 03:41:05;;;;;;;18.52;8.98;;;10.20;96.90;;;;;;5049031;28;20641;-73
2021/05/12 03:43:33;;;;;;;17.92;8.25;;;10.20;96.90;;;;;;5046965;28;20029;-71
2021/05/12 03:46:00;;;;;;;19.80;8.90;;;10.10;96.90;;;;;;5047105;28;20474;-71
2021/05/12 03:48:25;;;;;;;15.55;8.52;;;10.20;97.00;;;;;;5048215;28;20264;-71
2021/05/12 03:50:51;;;;;;;15.85;9.82;;;10.20;97.00;;;;;;5045750;28;20151;-71
2021/05/12 03:53:16;;;;;;;15.00;10.60;;;10.20;96.90;;;;;;5056422;28;20127;-71
2021/05/12 03:55:42;;;;;;;18.63;10.40;;;10.20;97.00;;;;;;5046608;28;20031;-71
2021/05/12 03:58:08;;;;;;;18.30;9.80;;;10.10;97.00;;;;;;5065793;28;20519;-70
2021/05/12 04:00:34;;;;;;;18.45;10.88;;;10.10;97.00;;;;;;5056828;28;20039;-71
2021/05/12 04:02:59;;;;;;;19.25;10.80;;;10.20;97.10;;;;;;5063506;28;20052;-71
2021/05/12 04:05:25;;;;;;;19.15;10.82;;;10.20;97.10;;;;;;5048724;28;20120;-71
2021/05/12 04:07:50;;;;;;;16.42;10.43;;;10.10;97.10;;;;;;5065286;28;20571;-71
2021/05/12 04:10:17;;;;;;;17.88;11.05;;;10.20;97.10;;;;;;5058391;28;20054;-71
2021/05/12 04:12:43;;;;;;;16.40;10.27;;;10.20;97.20;;;;;;5056001;28;20032;-71
2021/05/12 04:15:09;;;;;;;19.00;10.65;;;10.20;97.20;;;;;;5045564;28;20388;-71
2021/05/12 04:17:35;;;;;;;18.70;11.18;;;10.20;97.20;;;;;;5051348;28;20029;-71
2021/05/12 04:20:02;;;;;;;16.17;11.02;;;10.30;97.20;;;;;;5055602;28;20065;-71
2021/05/12 04:22:28;;;;;;;20.25;10.95;;;10.30;97.20;;;;;;5056043;28;20032;-62
2021/05/12 04:24:54;;;;;;;20.27;11.60;;;10.30;97.20;;;;;;5046567;28;20033;-62
2021/05/12 04:27:19;;;;;;;22.35;12.07;;;10.40;97.20;;;;;;5057312;28;20032;-61
2021/05/12 04:29:46;;;;;;;20.95;11.75;;;10.30;97.10;;;;;;5050692;28;20480;-62
2021/05/12 04:32:12;;;;;;;18.50;11.15;;;10.30;97.10;;;;;;5065623;28;20036;-62
2021/05/12 04:34:37;;;;;;;24.60;12.25;;;10.40;97.10;;;;;;5045788;28;20029;-62
2021/05/12 04:37:03;;;;;;;19.63;12.18;;;10.40;97.10;;;;;;5052856;28;20025;-62
2021/05/12 04:39:29;;;;;;;19.17;12.45;;;10.30;97.00;;;;;;5061051;28;20040;-61
2021/05/12 04:41:56;;;;;;;21.30;12.63;;;10.40;97.10;;;;;;5054070;28;20108;-62
2021/05/12 04:44:22;;;;;;;28.25;13.65;;;10.40;97.10;;;;;;5054414;28;20020;-63
2021/05/12 04:46:49;;;;;;;23.10;12.98;;;10.40;97.10;;;;;;5048903;28;20050;-62
2021/05/12 04:49:15;;;;;;;26.95;14.50;;;10.40;97.00;;;;;;5047592;28;20033;-61
2021/05/12 04:51:41;;;;;;;25.52;13.95;;;10.50;97.00;;;;;;5043916;28;20112;-61
2021/05/12 04:54:07;;;;;;;30.48;15.57;;;10.50;96.90;;;;;;5057956;28;21234;-61
2021/05/12 04:56:34;;;;;;;29.17;15.52;;;10.50;97.00;;;;;;5068455;28;20032;-60
2021/05/12 04:59:00;;;;;;;32.35;17.13;;;10.50;96.90;;;;;;5049547;28;20499;-62
2021/05/12 05:01:26;;;;;;;36.00;16.45;;;10.60;97.00;;;;;;5053419;28;20033;-62
2021/05/12 05:03:52;;;;;;;32.55;17.65;;;10.60;96.80;;;;;;5062062;28;20031;-61
2021/05/12 05:06:17;;;;;;;26.80;16.85;;;10.60;96.80;;;;;;5058281;28;20025;-65
2021/05/12 05:08:43;;;;;;;32.85;17.88;;;10.50;96.70;;;;;;5062511;28;20110;-64
2021/05/12 05:11:09;;;;;;;32.53;18.27;;;10.60;96.70;;;;;;5049521;28;20083;-62
2021/05/12 05:13:35;;;;;;;32.40;18.55;;;10.70;96.80;;;;;;5053038;28;20033;-61
2021/05/12 05:16:01;;;;;;;30.50;18.45;;;10.70;96.80;;;;;;5052371;28;20562;-62
2021/05/12 05:18:28;;;;;;;28.40;18.35;;;10.60;96.70;;;;;;5052860;28;20111;-62
2021/05/12 05:20:54;;;;;;;30.55;17.85;;;10.60;96.80;;;;;;5051566;28;20040;-62
2021/05/12 05:23:20;;;;;;;27.95;18.17;;;10.60;96.60;;;;;;5057165;28;20017;-62
2021/05/12 05:25:46;;;;;;;30.52;19.15;;;10.60;96.50;;;;;;5060482;28;20012;-62
2021/05/12 05:28:12;;;;;;;33.17;20.27;;;10.70;96.50;;;;;;5051317;28;20048;-62
2021/05/12 05:30:37;;;;;;;30.02;19.33;;;10.60;96.30;;;;;;5058969;28;20548;-62
2021/05/12 05:33:03;;;;;;;28.10;19.58;;;10.70;96.50;;;;;;5049811;28;20037;-62
2021/05/12 05:35:29;;;;;;;30.70;19.30;;;10.70;96.20;;;;;;5053186;28;20060;-62
2021/05/12 05:37:54;;;;;;;32.10;19.55;;;10.70;96.20;;;;;;5055260;28;20078;-62
2021/05/12 05:40:20;;;;;;;31.98;20.23;;;10.80;96.30;;;;;;5061832;28;20428;-61
2021/05/12 05:42:46;;;;;;;29.00;19.30;;;10.80;96.30;;;;;;5057601;28;20024;-62
2021/05/12 05:45:12;;;;;;;31.88;20.05;;;10.80;96.10;;;;;;5056151;28;20363;-62
2021/05/12 05:47:37;;;;;;;29.52;20.45;;;10.80;96.30;;;;;;5059396;28;20480;-62
2021/05/12 05:50:04;;;;;;;30.88;20.27;;;10.80;96.20;;;;;;5052508;28;20044;-63
2021/05/12 05:52:30;;;;;;;30.83;20.67;;;10.80;96.10;;;;;;5060214;28;20029;-62
2021/05/12 05:54:56;;;;;;;34.45;22.58;;;10.80;96.10;;;;;;5058293;28;20067;-62
2021/05/12 05:57:22;;;;;;;35.15;20.50;;;10.80;96.20;;;;;;5053629;28;20107;-62
2021/05/12 05:59:48;;;;;;;30.95;21.75;;;10.80;95.80;;;;;;5057613;28;20455;-61
2021/05/12 06:02:13;;;;;;;30.83;19.42;;;10.90;96.00;;;;;;5050978;28;20025;-61
2021/05/12 06:04:39;;;;;;;30.10;19.95;;;10.90;95.70;;;;;;5060133;28;20254;-62
2021/05/12 06:07:05;;;;;;;28.77;19.77;;;11.00;95.90;;;;;;5056549;28;20025;-62
2021/05/12 06:09:30;;;;;;;29.63;18.77;;;11.10;96.00;;;;;;5049269;28;20033;-61
2021/05/12 06:11:56;;;;;;;27.67;20.55;;;11.00;95.50;;;;;;5050805;28;20025;-62
2021/05/12 06:14:23;;;;;;;27.40;18.00;;;11.10;95.60;;;;;;5064411;28;20032;-62
2021/05/12 06:16:49;;;;;;;28.55;17.15;;;11.10;95.30;;;;;;5054945;28;20033;-60
2021/05/12 06:19:15;;;;;;;23.23;16.58;;;11.20;95.50;;;;;;5050524;28;20026;-61
2021/05/12 06:21:41;;;;;;;24.42;17.63;;;11.20;95.20;;;;;;5053193;28;20148;-62
2021/05/12 06:24:07;;;;;;;24.05;16.10;;;11.20;95.10;;;;;;5052168;28;20056;-62
2021/05/12 06:26:35;;;;;;;21.95;15.10;;;11.20;95.00;;;;;;5048331;28;20285;-62
2021/05/12 06:29:00;;;;;;;21.02;14.55;;;11.30;95.10;;;;;;5056274;28;20063;-62
2021/05/12 06:31:26;;;;;;;22.40;13.57;;;11.20;94.40;;;;;;5056918;28;20052;-62
2021/05/12 06:33:53;;;;;;;22.77;14.27;;;11.30;94.40;;;;;;5051409;28;20061;-60
2021/05/12 06:36:19;;;;;;;17.35;12.23;;;11.40;94.20;;;;;;5056341;28;20489;-62
2021/05/12 06:38:47;;;;;;;18.92;13.38;;;11.50;94.40;;;;;;5056643;28;20029;-62
2021/05/12 06:41:13;;;;;;;18.55;12.05;;;11.60;94.20;;;;;;5051264;28;20111;-61
2021/05/12 06:43:38;;;;;;;15.32;10.75;;;11.60;93.40;;;;;;5056880;28;20020;-63
2021/05/12 06:46:04;;;;;;;15.77;10.73;;;11.50;93.00;;;;;;5049340;28;20089;-63
2021/05/12 06:48:30;;;;;;;19.20;10.95;;;11.50;93.40;;;;;;5051146;28;20501;-63
2021/05/12 06:50:55;;;;;;;17.00;10.25;;;11.70;93.80;;;;;;5055561;28;20070;-61
2021/05/12 06:53:34;;;;;;;14.65;9.77;;;11.60;93.30;;;;;;5056366;28;20542;-62
2021/05/12 06:56:00;;;;;;;18.30;9.18;;;11.80;93.40;;;;;;5054742;28;20478;-64
2021/05/12 06:58:26;;;;;;;14.65;8.90;;;11.70;92.70;;;;;;5054935;28;20029;-63
2021/05/12 07:00:52;;;;;;;14.50;9.40;;;11.60;92.40;;;;;;5057409;28;20505;-63
2021/05/12 07:03:21;;;;;;;14.70;10.70;;;11.60;92.80;;;;;;5055822;28;20102;-62
2021/05/12 07:05:46;;;;;;;13.85;9.95;;;11.70;93.00;;;;;;5047738;28;20029;-63
2021/05/12 07:08:12;;;;;;;13.88;10.10;;;11.80;93.20;;;;;;5052628;28;20493;-61
2021/05/12 07:10:38;;;;;;;19.63;9.60;;;11.90;92.80;;;;;;5054411;28;20033;-64
2021/05/12 07:13:04;;;;;;;14.90;9.43;;;12.00;92.60;;;;;;5066271;28;20031;-64
2021/05/12 07:15:30;;;;;;;15.25;9.73;;;12.00;92.20;;;;;;5059352;28;20512;-64
2021/05/12 07:17:55;;;;;;;16.33;10.25;;;12.00;92.10;;;;;;5054478;28;20095;-64
2021/05/12 07:20:21;;;;;;;19.38;9.65;;;12.10;92.50;;;;;;5055425;28;20024;-63
2021/05/12 07:22:48;;;;;;;15.98;9.15;;;12.10;92.10;;;;;;5058099;28;20029;-63
2021/05/12 07:25:14;;;;;;;13.70;9.70;;;12.00;91.90;;;;;;5052549;28;20254;-63
2021/05/12 07:27:40;;;;;;;15.57;9.60;;;12.10;91.70;;;;;;5056677;28;20583;-63
2021/05/12 07:30:07;;;;;;;14.07;9.50;;;12.10;92.20;;;;;;5058818;28;20090;-63
2021/05/12 07:32:33;;;;;;;14.80;9.00;;;12.20;91.70;;;;;;5053756;28;20047;-64
2021/05/12 07:34:59;;;;;;;11.98;9.20;;;12.30;91.50;;;;;;5062384;28;20029;-63
2021/05/12 07:37:24;;;;;;;16.10;8.23;;;12.30;91.50;;;;;;5054648;28;20031;-62
2021/05/12 07:39:51;;;;;;;13.70;8.05;;;12.30;90.80;;;;;;5049182;28;20373;-63
2021/05/12 07:42:18;;;;;;;16.35;8.73;;;12.40;90.70;;;;;;5063788;28;20095;-63
2021/05/12 07:44:46;;;;;;;17.48;9.07;;;12.30;91.00;;;;;;5045171;28;20036;-63
2021/05/12 07:47:11;;;;;;;13.57;8.73;;;12.50;91.10;;;;;;5055624;28;20082;-65
2021/05/12 07:49:38;;;;;;;18.73;9.55;;;12.40;90.50;;;;;;5051214;28;20029;-63
2021/05/12 07:52:05;;;;;;;13.45;9.13;;;12.50;91.10;;;;;;5056297;28;20032;-63
2021/05/12 07:54:31;;;;;;;14.63;8.70;;;12.60;90.60;;;;;;5053001;28;20629;-64
2021/05/12 07:56:56;;;;;;;12.18;7.88;;;12.70;90.50;;;;;;5045816;28;20048;-64
2021/05/12 07:59:24;;;;;;;12.93;8.07;;;12.60;90.10;;;;;;5052208;28;20484;-63
2021/05/12 08:01:49;;;;;;;13.13;7.82;;;12.50;90.60;;;;;;5047111;28;20573;-63
2021/05/12 08:04:15;;;;;;;13.35;7.65;;;12.50;90.80;;;;;;5058108;28;20282;-64
2021/05/12 08:06:41;;;;;;;14.85;8.40;;;12.40;90.50;;;;;;5049050;28;20442;-64
2021/05/12 08:09:08;;;;;;;15.75;9.00;;;12.40;91.10;;;;;;5049440;28;20029;-63
2021/05/12 08:11:34;;;;;;;14.65;8.55;;;12.40;91.50;;;;;;5048473;28;20041;-62
2021/05/12 08:14:00;;;;;;;12.43;8.73;;;12.40;91.80;;;;;;5053750;28;20194;-63
2021/05/12 08:16:25;;;;;;;12.68;8.27;;;12.30;91.30;;;;;;5057959;28;20441;-63
2021/05/12 08:18:51;;;;;;;14.85;8.85;;;12.30;91.40;;;;;;5055078;28;20028;-63
2021/05/12 08:21:18;;;;;;;14.57;8.50;;;12.30;91.50;;;;;;5055033;28;20115;-62
2021/05/12 08:23:44;;;;;;;15.60;9.45;;;12.30;91.70;;;;;;5057349;28;20032;-62
2021/05/12 08:26:10;;;;;;;20.70;9.30;;;12.40;91.70;;;;;;5044978;28;20029;-64
2021/05/12 08:28:38;;;;;;;15.10;9.18;;;12.50;92.10;;;;;;5050189;28;20025;-62
2021/05/12 08:31:05;;;;;;;13.95;9.32;;;12.50;92.10;;;;;;5044160;28;20063;-63
2021/05/12 08:33:31;;;;;;;17.70;9.93;;;12.50;91.80;;;;;;5058755;28;20279;-64
2021/05/12 08:35:57;;;;;;;14.02;8.68;;;12.50;91.40;;;;;;5046470;28;20048;-64
2021/05/12 08:38:25;;;;;;;16.50;8.82;;;12.50;91.00;;;;;;5046358;28;20446;-64
2021/05/12 08:40:53;;;;;;;14.82;8.95;;;12.50;91.00;;;;;;5049827;28;20032;-63
2021/05/12 08:43:19;;;;;;;14.80;9.57;;;12.50;91.50;;;;;;5055367;28;20058;-63
2021/05/12 08:45:46;;;;;;;16.08;9.32;;;12.40;91.80;;;;;;5050457;28;20029;-61
2021/05/12 08:48:16;;;;;;;15.30;9.57;;;12.40;91.90;;;;;;5047160;28;20116;-63
2021/05/12 08:50:43;;;;;;;13.95;8.98;;;12.50;92.10;;;;;;5047375;28;20516;-66
2021/05/12 08:53:09;;;;;;;15.73;9.65;;;12.50;92.00;;;;;;5057723;28;20044;-65
2021/05/12 08:55:36;;;;;;;15.75;8.25;;;12.60;92.50;;;;;;5062739;28;20029;-64
2021/05/12 08:58:02;;;;;;;11.93;8.23;;;12.60;91.90;;;;;;5055029;28;20616;-65
2021/05/12 09:00:28;;;;;;;13.50;7.88;;;12.60;92.40;;;;;;5053799;28;20055;-64
2021/05/12 09:02:55;;;;;;;13.52;8.52;;;12.60;91.80;;;;;;5060274;28;20032;-65
2021/05/12 09:05:21;;;;;;;16.52;8.32;;;12.60;92.40;;;;;;5044912;28;20051;-64
2021/05/12 09:07:47;;;;;;;18.33;8.13;;;12.60;92.60;;;;;;5049030;28;20025;-65
2021/05/12 09:10:14;;;;;;;15.13;8.07;;;12.60;92.10;;;;;;5050023;28;20452;-64
2021/05/12 09:12:46;;;;;;;15.60;7.85;;;12.50;92.00;;;;;;5059148;28;20025;-62
2021/05/12 09:15:12;;;;;;;;;;;12.50;92.70;;;;;;5049172;28;20372;-65
2021/05/12 09:17:41;;;;;;;13.98;8.02;;;12.50;93.00;;;;;;5055737;28;20142;-65
2021/05/12 09:20:19;;;;;;;14.10;7.93;;;12.50;93.40;;;;;;5046781;28;20032;-65
2021/05/12 09:23:16;;;;;;;11.05;8.13;;;12.40;92.80;;;;;;5047163;28;20112;-63
2021/05/12 09:25:53;;;;;;;14.80;9.95;;;12.30;92.80;;;;;;5048221;28;20071;-64
2021/05/12 09:28:21;;;;;;;16.98;10.32;;;12.40;93.10;;;;;;5050685;28;20028;-65
2021/05/12 09:31:07;;;;;;;16.60;10.45;;;12.40;92.90;;;;;;5053051;28;20552;-65
2021/05/12 09:33:36;;;;;;;16.02;11.88;;;12.60;92.40;;;;;;5048416;28;20114;-64
2021/05/12 09:36:07;;;;;;;20.30;12.18;;;12.60;91.50;;;;;;5046485;28;20085;-65
2021/05/12 09:38:33;;;;;;;17.27;11.07;;;12.80;91.70;;;;;;5053253;28;20077;-66
2021/05/12 09:41:12;;;;;;;14.38;11.90;;;13.00;91.10;;;;;;5056390;28;20044;-71
2021/05/12 09:43:48;;;;;;;16.30;11.40;;;13.20;90.70;;;;;;5048950;28;20216;-68
2021/05/12 09:46:15;;;;;;;21.65;12.60;;;13.50;90.00;;;;;;5053717;28;20028;-66
2021/05/12 09:48:59;;;;;;;18.15;12.60;;;13.70;89.70;;;;;;5053801;28;20021;-65
2021/05/12 09:51:36;;;;;;;16.25;11.73;;;13.50;88.60;;;;;;5051878;28;20525;-64
2021/05/12 09:54:07;;;;;;;16.73;11.02;;;13.50;89.00;;;;;;5052115;28;20044;-64
2021/05/12 09:56:43;;;;;;;15.50;9.93;;;13.50;88.50;;;;;;5058026;28;20104;-65
2021/05/12 09:59:22;;;;;;;15.52;10.25;;;13.60;88.20;;;;;;5062160;28;20024;-65
2021/05/12 10:01:49;;;;;;;17.38;8.85;;;13.90;88.60;;;;;;5056951;28;20029;-64
2021/05/12 10:07:24;;;;;;;13.00;7.65;;;13.50;88.10;;;;;;5044057;28;20029;-64
2021/05/12 10:09:52;;;;;;;12.15;7.57;;;13.50;89.00;;;;;;5050474;28;20112;-65
2021/05/12 10:12:29;;;;;;;10.95;6.57;;;13.30;89.20;;;;;;5059882;28;20550;-65
2021/05/12 10:14:57;;;;;;;8.77;6.15;;;13.10;89.00;;;;;;5054121;28;20158;-63
2021/05/12 10:17:24;;;;;;;9.52;5.90;;;13.00;89.30;;;;;;5055879;28;20365;-63
2021/05/12 10:19:51;;;;;;;10.95;6.20;;;13.00;89.60;;;;;;5055950;28;20036;-65
2021/05/12 10:22:18;;;;;;;11.15;6.00;;;13.10;89.00;;;;;;5059361;28;20017;-64
2021/05/12 10:24:49;;;;;;;10.18;5.65;;;13.10;89.20;;;;;;5051652;28;20480;-64
2021/05/12 10:27:26;;;;;;;11.82;6.97;;;13.00;89.30;;;;;;5056419;28;20036;-64
2021/05/12 10:29:54;;;;;;;13.15;7.05;;;12.90;88.80;;;;;;5048881;28;20089;-65
2021/05/12 10:32:36;;;;;;;13.40;6.65;;;13.00;89.40;;;;;;5057933;28;20029;-64
2021/05/12 10:35:10;;;;;;;9.93;5.78;;;13.10;89.30;;;;;;5055640;28;20025;-64
2021/05/12 10:37:43;;;;;;;10.93;6.55;;;13.20;88.80;;;;;;5049080;28;20231;-64
2021/05/12 10:40:34;;;;;;;9.13;6.18;;;13.30;89.00;;;;;;5049551;28;20028;-64
2021/05/12 10:43:09;;;;;;;13.57;6.13;;;13.20;88.00;;;;;;5062412;28;20028;-64
2021/05/12 10:46:04;;;;;;;11.02;6.15;;;13.10;88.20;;;;;;5052069;28;20534;-62
2021/05/12 10:48:44;;;;;;;12.98;6.07;;;13.10;88.80;;;;;;5056245;28;20067;-65
2021/05/12 10:51:19;;;;;;;7.93;5.50;;;13.20;87.80;;;;;;5053092;28;20036;-62
2021/05/12 10:53:47;;;;;;;9.38;6.07;;;13.10;87.30;;;;;;5055849;28;20040;-61
2021/05/12 10:56:15;;;;;;;8.10;5.22;;;13.10;88.80;;;;;;5055827;28;20044;-62
2021/05/12 10:58:55;;;;;;;11.35;5.13;;;13.00;87.50;;;;;;5057512;28;20024;-68
2021/05/12 11:01:21;;;;;;;9.70;5.68;;;13.00;88.00;;;;;;5063513;28;20031;-62
2021/05/12 11:03:52;;;;;;;9.05;4.80;;;12.90;88.10;;;;;;5056039;28;20404;-60
2021/05/12 11:06:25;;;;;;;8.32;5.22;;;12.80;88.80;;;;;;5056216;28;20063;-61
2021/05/12 11:09:17;;;;;;;7.45;5.03;;;12.90;89.30;;;;;;5046375;28;20029;-60
2021/05/12 11:11:43;;;;;;;7.43;4.80;;;12.80;88.60;;;;;;5052184;28;20098;-62
2021/05/12 11:14:29;;;;;;;7.38;4.40;;;12.90;88.40;;;;;;5061783;28;20107;-62
2021/05/12 11:17:03;;;;;;;11.13;4.57;;;13.10;88.80;;;;;;5052021;28;20651;-60
2021/05/12 11:19:41;;;;;;;8.80;4.20;;;13.10;88.30;;;;;;5056254;28;20503;-60
2021/05/12 11:33:33;;;;;;;6.05;3.92;;;13.30;87.90;;;;;;5061671;28;20043;-62
2021/05/12 11:36:10;;;;;;;6.78;4.05;;;13.30;88.10;;;;;;5054843;28;20051;-62
2021/05/12 11:38:37;;;;;;;9.10;4.47;;;13.20;86.70;;;;;;5056513;28;20033;-61
2021/05/12 11:41:10;;;;;;;6.85;3.70;;;13.30;87.40;;;;;;5049868;28;20024;-62
2021/05/12 11:44:02;;;;;;;6.65;3.95;;;13.30;87.60;;;;;;5054681;28;20104;-62
2021/05/12 11:46:33;;;;;;;7.00;3.30;;;13.60;87.30;;;;;;5055399;28;20050;-62
2021/05/12 11:49:02;;;;;;;7.70;4.40;;;13.70;86.30;;;;;;5046957;28;20025;-60
2021/05/12 11:51:40;;;;;;;7.97;3.90;;;13.80;85.90;;;;;;5049203;28;20032;-61
2021/05/12 11:54:20;;;;;;;7.20;4.25;;;13.90;84.70;;;;;;5051832;28;20037;-62
2021/05/12 11:56:51;;;;;;;8.68;4.10;;;13.90;85.10;;;;;;5046853;28;20071;-62
2021/05/12 11:59:23;;;;;;;;;;;13.90;84.80;;;;;;5057465;28;20967;-61
2021/05/12 12:01:56;;;;;;;6.75;4.10;;;13.90;84.80;;;;;;5032557;28;19917;-61
2021/05/12 12:04:30;;;;;;;6.20;3.90;;;13.90;85.10;;;;;;5044799;28;20029;-62
2021/05/12 12:06:57;;;;;;;8.57;4.20;;;13.80;85.50;;;;;;5052795;28;20033;-64
2021/05/12 12:09:22;;;;;;;6.55;4.10;;;13.80;84.90;;;;;;5047510;28;20040;-64
2021/05/12 12:11:48;;;;;;;8.43;4.40;;;13.90;85.30;;;;;;5061315;28;20377;-62
2021/05/12 12:14:15;;;;;;;7.63;4.38;;;14.10;84.60;;;;;;5057855;28;20032;-62
2021/05/12 12:16:44;;;;;;;8.90;3.60;;;14.30;83.60;;;;;;5058780;28;20482;-62
2021/05/12 12:19:15;;;;;;;5.68;3.60;;;14.60;82.50;;;;;;5045712;28;20025;-62
2021/05/12 12:21:43;;;;;;;7.15;3.15;;;14.50;82.00;;;;;;5046457;28;20665;-61
2021/05/12 12:24:13;;;;;;;7.35;3.10;;;14.30;83.20;;;;;;5049779;28;20128;-62
2021/05/12 12:26:43;;;;;;;6.60;3.10;;;14.20;82.50;;;;;;5055274;28;20039;-61
2021/05/12 12:29:09;;;;;;;5.90;3.30;;;14.10;83.60;;;;;;5049660;28;20595;-62
2021/05/12 12:31:41;;;;;;;6.50;2.95;;;14.30;83.70;;;;;;5056560;28;20032;-62
2021/05/12 12:34:13;;;;;;;7.13;3.00;;;14.10;83.00;;;;;;5053586;28;20510;-62
2021/05/12 12:37:00;;;;;;;4.68;2.63;;;14.10;83.10;;;;;;5052819;28;20025;-61
2021/05/12 12:39:40;;;;;;;4.47;2.95;;;14.00;83.50;;;;;;5050309;28;20032;-62
2021/05/12 12:42:06;;;;;;;5.80;2.65;;;14.00;84.60;;;;;;5058847;28;20040;-62
2021/05/12 12:44:37;;;;;;;4.05;2.95;;;14.10;84.50;;;;;;5051230;28;20025;-62
2021/05/12 12:47:03;;;;;;;;;;;14.20;83.20;;;;;;5051203;28;20503;-67
2021/05/12 12:49:47;;;;;;;4.45;2.88;;;14.40;82.90;;;;;;5055778;28;20345;-64
2021/05/12 12:52:38;;;;;;;4.65;2.65;;;14.30;82.90;;;;;;5049658;28;20065;-63
2021/05/12 12:55:10;;;;;;;4.75;2.90;;;14.30;82.40;;;;;;5051015;28;20021;-65